Time;durP1;ratioP1;P1;durP2;ratioP2;P2;SDS_P1;SDS_P2;PMS_P1;PMS_P2;Temp;Humidity;BMP_temperature;BMP_pressure;BME280_temperature;BME280_humidity;BME280_pressure;Samples;Min_cycle;Max_cycle;Signal;HPM_P1;HPM_P2
2022/12/03 00:01:49;;;;;;;9.30;6.07;;;;;;;1.05;100.00;96026.38;5099149;28;20256;-81
2022/12/03 00:04:17;;;;;;;7.30;5.03;;;;;;;1.01;100.00;96021.63;5101484;28;20215;-81
2022/12/03 00:06:44;;;;;;;7.70;4.83;;;;;;;1.03;100.00;96024.91;5096403;28;20231;-81
2022/12/03 00:09:13;;;;;;;7.93;5.23;;;;;;;0.99;100.00;96011.16;5112037;27;20218;-81
2022/12/03 00:11:40;;;;;;;8.30;5.00;;;;;;;0.92;100.00;96009.41;5094268;27;20215;-81
2022/12/03 00:14:07;;;;;;;7.33;4.47;;;;;;;1.00;100.00;96026.09;5099442;28;20235;-81
2022/12/03 00:16:34;;;;;;;8.93;5.00;;;;;;;0.95;100.00;96017.00;5100608;28;20195;-81
2022/12/03 00:19:06;;;;;;;9.33;5.23;;;;;;;0.97;100.00;96012.34;5105728;28;20247;-81
2022/12/03 00:21:33;;;;;;;12.30;6.90;;;;;;;1.01;100.00;96024.28;5105998;28;20220;-81
2022/12/03 00:24:01;;;;;;;9.37;5.80;;;;;;;1.03;100.00;96016.94;5095773;28;20196;-81
2022/12/03 00:26:28;;;;;;;10.33;6.30;;;;;;;0.95;100.00;96006.38;5095840;27;20260;-80
2022/12/03 00:44:11;;;;;;;12.07;6.17;;;;;;;0.72;100.00;95995.75;4893968;28;20285;-80
2022/12/03 00:46:39;;;;;;;10.80;6.60;;;;;;;0.80;100.00;96003.66;4962933;28;20227;-81
2022/12/03 00:49:08;;;;;;;8.33;5.17;;;;;;;0.83;100.00;96005.97;5072659;28;20219;-80
2022/12/03 00:51:35;;;;;;;8.80;5.57;;;;;;;0.81;100.00;96013.31;5088212;27;20234;-81
2022/12/03 00:54:02;;;;;;;9.00;5.73;;;;;;;0.84;100.00;96010.28;5092543;28;20202;-81
2022/12/03 00:56:30;;;;;;;9.53;5.33;;;;;;;0.82;100.00;96006.16;5091039;28;20207;-81
2022/12/03 00:58:57;;;;;;;10.50;6.23;;;;;;;0.79;100.00;96007.31;5088254;28;20204;-81
2022/12/03 01:01:26;;;;;;;11.37;6.30;;;;;;;0.73;100.00;96000.91;5094192;28;20211;-80
2022/12/03 01:03:53;;;;;;;9.20;5.53;;;;;;;0.73;100.00;96006.22;5087101;28;20196;-81
2022/12/03 01:06:22;;;;;;;9.00;5.83;;;;;;;0.67;100.00;96009.59;5087760;28;20306;-80
2022/12/03 01:08:49;;;;;;;8.60;5.40;;;;;;;0.67;100.00;96016.75;5109110;28;20210;-81
2022/12/03 01:14:01;;;;;;;10.83;5.90;;;;;;;0.66;100.00;96023.88;5100389;27;20284;-81
2022/12/03 01:16:30;;;;;;;8.87;5.73;;;;;;;0.71;100.00;96032.13;5104695;27;20231;-80
2022/12/03 01:18:57;;;;;;;9.57;5.50;;;;;;;0.66;100.00;96018.56;5112860;27;20239;-80
2022/12/03 01:21:24;;;;;;;8.07;5.70;;;;;;;0.77;100.00;96029.78;5097870;27;20207;-81
2022/12/03 01:23:52;;;;;;;10.83;5.50;;;;;;;0.67;100.00;96020.22;5095322;27;20235;-81
2022/12/03 01:26:19;;;;;;;9.97;5.90;;;;;;;0.63;100.00;96032.19;5102243;27;20319;-81
2022/12/03 01:28:47;;;;;;;8.77;5.53;;;;;;;0.72;100.00;96035.63;5101925;27;20302;-81
2022/12/03 01:34:02;;;;;;;8.90;6.13;;;;;;;0.66;100.00;96018.56;5108527;27;20219;-81
2022/12/03 01:36:29;;;;;;;8.13;5.53;;;;;;;0.64;100.00;96028.53;5104255;27;20204;-81
2022/12/03 01:38:57;;;;;;;11.23;5.57;;;;;;;0.66;100.00;96028.38;5095811;27;20195;-81
2022/12/03 01:41:25;;;;;;;9.07;5.80;;;;;;;0.68;100.00;96032.47;5097852;27;20286;-81
2022/12/03 01:43:55;;;;;;;9.63;6.33;;;;;;;0.60;100.00;96024.56;5104596;27;20208;-81
2022/12/03 01:46:24;;;;;;;12.40;6.37;;;;;;;0.70;100.00;96041.09;5096014;28;20220;-80
2022/12/03 01:48:54;;;;;;;9.93;5.93;;;;;;;0.64;100.00;96035.69;5101551;27;20210;-80
2022/12/03 01:51:26;;;;;;;10.60;6.30;;;;;;;0.71;100.00;96053.41;5114921;27;20260;-80
2022/12/03 01:53:54;;;;;;;10.53;6.00;;;;;;;0.60;100.00;96037.03;5104569;27;20210;-81
2022/12/03 01:56:21;;;;;;;11.10;6.23;;;;;;;0.64;100.00;96047.13;5102952;27;20238;-81
2022/12/03 01:58:51;;;;;;;9.70;5.77;;;;;;;0.65;100.00;96043.47;5097562;27;20207;-80
2022/12/03 02:01:21;;;;;;;8.73;5.53;;;;;;;0.69;100.00;96059.88;5099421;28;20203;-81
2022/12/03 02:03:48;;;;;;;10.30;6.33;;;;;;;0.61;100.00;96042.16;5101540;27;20210;-81
2022/12/03 02:06:18;;;;;;;9.47;5.83;;;;;;;0.64;100.00;96041.00;5099756;27;20218;-81
2022/12/03 02:08:48;;;;;;;10.40;6.13;;;;;;;0.51;100.00;96030.94;5105199;27;20207;-80
2022/12/03 02:11:25;;;;;;;10.87;6.83;;;;;;;0.53;100.00;96022.78;5098192;27;20196;-80
2022/12/03 02:13:57;;;;;;;12.17;6.70;;;;;;;0.59;100.00;96044.19;5093961;27;20204;-80
2022/12/03 02:16:27;;;;;;;11.90;6.37;;;;;;;0.60;100.00;96040.50;5098242;27;20208;-81
2022/12/03 02:18:55;;;;;;;13.43;7.43;;;;;;;0.56;100.00;96030.41;5095161;27;20307;-80
2022/12/03 02:21:30;;;;;;;12.57;6.53;;;;;;;0.63;100.00;96037.50;5095224;27;20213;-80
2022/12/03 02:24:07;;;;;;;12.57;7.33;;;;;;;0.68;100.00;96040.44;5103219;27;20194;-80
2022/12/03 02:26:36;;;;;;;11.43;6.67;;;;;;;0.69;100.00;96044.75;5105168;27;20256;-80
2022/12/03 02:29:04;;;;;;;10.70;6.83;;;;;;;0.65;100.00;96046.13;5097425;27;20215;-80
2022/12/03 02:31:32;;;;;;;12.03;6.57;;;;;;;0.58;100.00;96053.16;5093778;27;20246;-80
2022/12/03 02:33:59;;;;;;;11.10;6.60;;;;;;;0.57;100.00;96051.50;5099621;27;20211;-80
2022/12/03 02:36:29;;;;;;;11.10;7.57;;;;;;;0.58;100.00;96052.34;5098750;27;20219;-81
2022/12/03 02:38:56;;;;;;;13.47;7.00;;;;;;;0.47;100.00;96031.47;5101570;27;20210;-81
2022/12/03 02:44:18;;;;;;;9.17;5.90;;;;;;;0.42;100.00;96037.31;5100758;27;20230;-81
2022/12/03 02:46:45;;;;;;;14.10;7.10;;;;;;;0.37;100.00;96021.06;5095119;28;20300;-80
2022/12/03 02:49:12;;;;;;;11.37;6.80;;;;;;;0.35;100.00;96015.09;5100190;28;20241;-80
2022/12/03 02:51:40;;;;;;;12.67;7.37;;;;;;;0.42;100.00;96034.66;5109354;28;20198;-80
2022/12/03 02:54:10;;;;;;;10.37;6.50;;;;;;;0.42;100.00;96029.34;5103006;27;20215;-80
2022/12/03 02:56:39;;;;;;;11.13;6.90;;;;;;;0.51;100.00;96025.63;5105598;27;20195;-80
2022/12/03 02:59:12;;;;;;;9.67;6.30;;;;;;;0.42;100.00;96013.41;5100837;27;20196;-80
2022/12/03 03:01:41;;;;;;;12.97;6.87;;;;;;;0.55;100.00;96026.09;5096040;27;20224;-81
2022/12/03 03:04:08;;;;;;;12.57;7.20;;;;;;;0.57;100.00;96024.94;5098747;28;20215;-80
2022/12/03 03:06:35;;;;;;;11.70;7.40;;;;;;;0.47;100.00;96016.38;5101593;27;20215;-81
2022/12/03 03:09:03;;;;;;;10.73;6.70;;;;;;;0.41;100.00;95997.66;5100375;27;20509;-81
2022/12/03 03:11:31;;;;;;;11.90;6.37;;;;;;;0.37;100.00;96018.41;5094801;27;20479;-80
2022/12/03 03:13:58;;;;;;;11.73;7.23;;;;;;;0.38;100.00;96020.06;5093203;27;20206;-80
2022/12/03 03:16:25;;;;;;;10.73;6.77;;;;;;;0.32;100.00;96011.00;5091991;28;20277;-80
2022/12/03 03:18:54;;;;;;;11.10;7.33;;;;;;;0.39;100.00;96011.09;5097149;28;20227;-80
2022/12/03 03:21:21;;;;;;;11.73;7.33;;;;;;;0.41;100.00;96011.75;5117578;27;20215;-80
2022/12/03 03:23:48;;;;;;;13.43;7.90;;;;;;;0.37;100.00;95999.81;5100355;28;20300;-81
2022/12/03 03:26:16;;;;;;;13.43;8.07;;;;;;;0.46;100.00;96001.44;5100491;28;20222;-80
2022/12/03 03:28:49;;;;;;;12.60;7.90;;;;;;;0.50;100.00;96016.03;5100211;28;20212;-80
2022/12/03 03:31:18;;;;;;;16.73;10.00;;;;;;;0.47;100.00;96003.09;5110039;27;20260;-80
2022/12/03 03:33:51;;;;;;;12.53;7.80;;;;;;;0.47;100.00;95995.13;5096948;28;20214;-81
2022/12/03 03:36:21;;;;;;;12.97;6.90;;;;;;;0.45;100.00;96004.25;5103637;28;20205;-80
2022/12/03 03:38:51;;;;;;;13.37;7.13;;;;;;;0.49;100.00;95989.63;5099443;28;20299;-81
2022/12/03 03:41:21;;;;;;;13.47;7.40;;;;;;;0.50;100.00;95991.28;5103247;28;20229;-81
2022/12/03 03:43:49;;;;;;;10.97;7.13;;;;;;;0.54;100.00;95993.41;5094009;28;20225;-80
2022/12/03 03:46:19;;;;;;;12.97;7.07;;;;;;;0.37;100.00;95987.38;5099361;28;20200;-80
2022/12/03 03:48:48;;;;;;;12.17;7.57;;;;;;;0.35;100.00;95978.75;5099669;28;20215;-80
2022/12/03 03:51:17;;;;;;;12.67;7.23;;;;;;;0.41;100.00;95987.88;5102298;28;20196;-81
2022/12/03 03:53:50;;;;;;;13.30;7.10;;;;;;;0.40;100.00;95988.84;5105366;28;20221;-81
2022/12/03 03:56:21;;;;;;;12.00;6.80;;;;;;;0.44;100.00;95974.22;5104981;28;20191;-81
2022/12/03 03:58:48;;;;;;;10.70;6.67;;;;;;;0.47;100.00;95975.69;5117099;27;20201;-81
2022/12/03 04:01:17;;;;;;;11.43;6.23;;;;;;;0.46;100.00;95984.66;5098893;28;20216;-81
2022/12/03 04:03:44;;;;;;;11.17;6.67;;;;;;;0.42;100.00;95989.53;5092707;27;20208;-80
2022/12/03 04:06:14;;;;;;;11.37;7.30;;;;;;;0.36;100.00;95979.56;5108481;28;20203;-80
2022/12/03 04:08:41;;;;;;;8.83;6.30;;;;;;;0.38;100.00;95982.88;5104563;27;20291;-81
2022/12/03 04:13:54;;;;;;;13.23;6.67;;;;;;;0.37;100.00;95987.38;5109702;27;20204;-80
2022/12/03 04:16:21;;;;;;;11.10;6.83;;;;;;;0.19;100.00;95973.53;5124616;27;20202;-80
2022/12/03 04:18:50;;;;;;;11.67;6.73;;;;;;;0.32;100.00;95983.59;5100718;27;20311;-81
2022/12/03 04:24:09;;;;;;;12.33;7.50;;;;;;;0.29;100.00;95994.56;5101025;27;20232;-80
2022/12/03 04:29:21;;;;;;;14.90;7.50;;;;;;;0.23;100.00;95989.97;5107987;27;20279;-80
2022/12/03 04:37:18;;;;;;;13.20;7.03;;;;;;;0.36;100.00;95984.88;5101532;27;20203;-81
2022/12/03 04:39:45;;;;;;;13.67;7.00;;;;;;;0.31;100.00;95966.00;5118342;27;20192;-81
2022/12/03 04:42:13;;;;;;;12.77;7.33;;;;;;;0.21;100.00;95965.41;5101642;28;20196;-81
2022/12/03 04:44:41;;;;;;;12.50;7.00;;;;;;;0.30;100.00;95974.97;5109727;27;20200;-81
2022/12/03 04:47:11;;;;;;;11.23;6.83;;;;;;;0.29;100.00;95983.94;5107969;27;20223;-81
2022/12/03 04:49:41;;;;;;;10.63;6.73;;;;;;;0.30;100.00;95981.13;5099075;27;20290;-81
2022/12/03 04:52:09;;;;;;;12.47;7.63;;;;;;;0.22;100.00;95983.00;5099364;27;20195;-81
2022/12/03 04:54:37;;;;;;;19.73;10.83;;;;;;;0.18;100.00;95987.00;5108651;27;20207;-81
2022/12/03 04:57:08;;;;;;;15.67;9.87;;;;;;;0.14;100.00;95997.16;5105856;28;20231;-81
2022/12/03 04:59:37;;;;;;;15.13;8.73;;;;;;;0.17;100.00;95990.66;5096797;27;20295;-81
2022/12/03 05:02:06;;;;;;;13.20;7.97;;;;;;;0.19;100.00;95992.13;5098550;28;20204;-81
2022/12/03 05:04:34;;;;;;;12.63;7.70;;;;;;;0.22;100.00;95978.50;5107981;27;20308;-81
2022/12/03 05:07:04;;;;;;;18.13;8.87;;;;;;;0.18;100.00;95973.72;5102907;27;20226;-81
2022/12/03 05:09:38;;;;;;;14.87;8.63;;;;;;;0.25;100.00;95987.97;5113062;27;20199;-81
2022/12/03 05:12:10;;;;;;;13.30;7.77;;;;;;;0.25;100.00;95983.47;5097278;28;20214;-81
2022/12/03 05:17:28;;;;;;;17.13;9.23;;;;;;;0.28;100.00;95977.81;5092679;27;20300;-81
2022/12/03 05:22:39;;;;;;;15.93;9.07;;;;;;;0.26;100.00;95978.97;5115582;27;20230;-81
2022/12/03 05:25:07;;;;;;;15.50;9.17;;;;;;;0.28;100.00;95976.97;5116492;27;20219;-81
2022/12/03 05:27:34;;;;;;;16.63;8.70;;;;;;;0.30;100.00;95964.34;5102122;27;20302;-81
2022/12/03 05:30:03;;;;;;;20.47;11.13;;;;;;;0.18;100.00;95944.50;5096143;27;20290;-80
2022/12/03 05:32:33;;;;;;;17.63;10.13;;;;;;;0.29;100.00;95968.84;5098566;28;20208;-81
2022/12/03 05:35:00;;;;;;;19.40;11.63;;;;;;;0.18;100.00;95949.81;5101287;27;20197;-81
2022/12/03 05:37:27;;;;;;;22.97;12.20;;;;;;;0.23;100.00;95944.81;5097926;27;20202;-81
2022/12/03 05:39:55;;;;;;;20.03;10.77;;;;;;;0.17;100.00;95934.91;5094644;28;20203;-81
2022/12/03 05:45:09;;;;;;;16.07;8.80;;;;;;;0.26;100.00;95942.63;5095557;28;20192;-81
2022/12/03 05:47:36;;;;;;;21.27;11.37;;;;;;;0.36;100.00;95950.38;5107110;27;20223;-81
2022/12/03 05:50:06;;;;;;;24.63;11.57;;;;;;;0.37;100.00;95946.72;5106368;27;20205;-81
2022/12/03 05:52:35;;;;;;;22.53;11.57;;;;;;;0.31;100.00;95936.81;5102639;27;20299;-81
2022/12/03 05:55:06;;;;;;;16.57;9.53;;;;;;;0.39;100.00;95936.75;5096834;27;20215;-82
2022/12/03 05:57:35;;;;;;;14.67;8.40;;;;;;;0.42;100.00;95947.03;5102980;27;20257;-81
2022/12/03 06:00:05;;;;;;;16.67;8.97;;;;;;;0.48;100.00;95956.94;5100072;27;20255;-81
2022/12/03 06:02:44;;;;;;;16.70;9.23;;;;;;;0.37;100.00;95939.56;5116983;27;20200;-81
2022/12/03 06:05:13;;;;;;;15.80;8.67;;;;;;;0.34;100.00;95928.50;5097966;27;20277;-81
2022/12/03 06:07:44;;;;;;;14.53;8.43;;;;;;;0.42;100.00;95947.03;5122039;27;20212;-81
2022/12/03 06:10:14;;;;;;;14.67;9.17;;;;;;;0.47;100.00;95957.94;5102191;27;20219;-82
2022/12/03 06:12:41;;;;;;;16.40;9.43;;;;;;;0.49;100.00;95958.59;5108279;27;20290;-82
2022/12/03 06:15:11;;;;;;;15.83;9.50;;;;;;;0.54;100.00;95953.56;5105076;27;20231;-82
2022/12/03 06:17:40;;;;;;;18.27;10.13;;;;;;;0.59;100.00;95956.53;5098043;28;20208;-82
2022/12/03 06:20:09;;;;;;;15.43;9.90;;;;;;;0.68;100.00;95958.09;5097988;27;20210;-83
2022/12/03 06:22:38;;;;;;;17.23;10.03;;;;;;;0.67;100.00;95950.31;5097199;27;20318;-82
2022/12/03 06:25:10;;;;;;;18.30;9.57;;;;;;;0.97;100.00;95949.38;5094625;27;20203;-81
2022/12/03 06:27:38;;;;;;;19.13;9.97;;;;;;;1.34;100.00;95937.88;5102212;27;20314;-82
2022/12/03 06:30:09;;;;;;;15.57;9.90;;;;;;;1.24;100.00;95953.25;5107942;27;20209;-82
2022/12/03 06:32:36;;;;;;;16.37;10.13;;;;;;;1.08;100.00;95954.25;5102627;27;20204;-82
2022/12/03 06:35:05;;;;;;;15.20;9.30;;;;;;;1.08;100.00;95962.22;5094866;27;20204;-81
2022/12/03 06:37:32;;;;;;;15.40;9.57;;;;;;;1.01;100.00;95952.50;5092180;28;20207;-82
2022/12/03 06:40:01;;;;;;;15.97;10.03;;;;;;;0.91;100.00;95943.94;5100026;27;20260;-82
2022/12/03 06:42:29;;;;;;;19.20;10.67;;;;;;;0.96;100.00;95953.03;5102310;27;20268;-82
2022/12/03 06:44:56;;;;;;;16.50;10.00;;;;;;;0.97;100.00;95960.00;5104772;27;20203;-82
2022/12/03 06:47:23;;;;;;;16.43;10.17;;;;;;;0.86;100.00;95936.50;5108400;28;20220;-82
2022/12/03 06:49:50;;;;;;;15.87;10.00;;;;;;;0.92;100.00;95945.59;5106490;28;20213;-82
2022/12/03 06:52:19;;;;;;;17.97;9.90;;;;;;;0.89;100.00;95953.94;5107517;28;20203;-82
2022/12/03 06:54:46;;;;;;;16.97;10.90;;;;;;;0.90;100.00;95951.09;5113191;27;20221;-82
2022/12/03 06:57:15;;;;;;;18.93;11.33;;;;;;;0.94;100.00;95946.22;5104227;27;20206;-82
2022/12/03 06:59:42;;;;;;;17.20;10.40;;;;;;;0.97;100.00;95952.03;5104653;28;20210;-82
2022/12/03 07:02:11;;;;;;;20.70;11.20;;;;;;;0.99;100.00;95955.34;5113128;27;20221;-82
2022/12/03 07:04:38;;;;;;;18.37;10.00;;;;;;;1.04;100.00;95962.75;5095955;27;20207;-82
2022/12/03 07:07:05;;;;;;;16.37;10.10;;;;;;;1.07;100.00;95965.06;5101667;27;20218;-82
2022/12/03 07:09:34;;;;;;;15.90;9.60;;;;;;;1.09;100.00;95966.53;5098032;28;20208;-82
2022/12/03 07:12:01;;;;;;;17.77;10.40;;;;;;;1.11;100.00;95971.66;5097758;28;20218;-83
2022/12/03 07:14:28;;;;;;;20.93;11.83;;;;;;;1.15;100.00;95964.97;5102745;28;20207;-83
2022/12/03 07:16:56;;;;;;;20.40;11.57;;;;;;;1.19;100.00;95966.28;5106623;28;20298;-83
2022/12/03 07:19:26;;;;;;;23.07;11.83;;;;;;;1.17;100.00;95956.84;5107064;28;20219;-82
2022/12/03 07:21:53;;;;;;;22.17;11.63;;;;;;;1.17;100.00;95967.47;5097507;28;20293;-83
2022/12/03 07:24:20;;;;;;;19.27;11.33;;;;;;;1.13;100.00;95953.69;5096751;27;20206;-83
2022/12/03 07:26:49;;;;;;;19.97;11.50;;;;;;;1.18;100.00;95971.78;5103397;28;20210;-83
2022/12/03 07:29:17;;;;;;;21.77;11.83;;;;;;;1.25;100.00;95976.19;5096055;28;20256;-84
2022/12/03 07:31:44;;;;;;;19.53;10.90;;;;;;;1.25;100.00;95962.88;5105845;28;20200;-84
2022/12/03 07:34:11;;;;;;;20.40;11.03;;;;;;;1.27;100.00;95978.69;5098833;27;20238;-84
2022/12/03 07:36:38;;;;;;;18.93;11.67;;;;;;;1.29;100.00;95972.16;5102788;28;20212;-84
2022/12/03 07:39:09;;;;;;;22.20;12.07;;;;;;;1.40;100.00;95974.38;5099877;27;20203;-85
2022/12/03 07:41:36;;;;;;;20.43;12.63;;;;;;;1.39;100.00;95972.72;5108777;27;20211;-84
2022/12/03 07:44:06;;;;;;;23.57;12.20;;;;;;;1.46;100.00;95973.63;5103694;27;20228;-84
2022/12/03 07:46:33;;;;;;;19.53;11.57;;;;;;;1.47;100.00;95969.97;5102901;27;20223;-84
2022/12/03 07:49:02;;;;;;;18.77;11.17;;;;;;;1.46;100.00;95960.31;5103695;27;20304;-85
2022/12/03 07:51:29;;;;;;;21.13;11.23;;;;;;;1.59;100.00;95962.34;5099566;27;20203;-84
2022/12/03 07:53:56;;;;;;;18.77;11.40;;;;;;;1.56;100.00;95952.06;5102174;27;20290;-84
2022/12/03 07:56:23;;;;;;;18.90;11.30;;;;;;;1.68;100.00;95960.41;5102642;27;20210;-84
2022/12/03 07:58:50;;;;;;;19.17;10.87;;;;;;;1.62;100.00;95950.50;5106631;27;20203;-84
2022/12/03 08:01:19;;;;;;;18.47;11.13;;;;;;;1.65;100.00;95945.63;5104806;27;20203;-84
2022/12/03 08:03:46;;;;;;;20.50;11.30;;;;;;;1.81;100.00;95960.59;5115970;27;20308;-83
2022/12/03 08:10:57;;;;;;;21.10;12.03;;;;;;;1.87;100.00;95970.50;5039392;28;20215;-83
2022/12/03 08:13:24;;;;;;;22.67;12.77;;;;;;;1.88;100.00;95953.50;5050345;27;20210;-83
2022/12/03 08:26:59;;;;;;;22.70;12.23;;;;;;;2.32;100.00;95955.25;4926504;28;20217;-83
2022/12/03 08:34:25;;;;;;;18.13;12.23;;;;;;;2.29;100.00;95929.81;4914658;29;20211;-83
2022/12/03 08:40:34;;;;;;;22.17;13.37;;;;;;;2.58;100.00;95942.19;4853679;29;20205;-83
2022/12/03 08:43:15;;;;;;;25.10;14.40;;;;;;;2.67;100.00;95957.03;4904721;28;20207;-84
2022/12/03 08:45:44;;;;;;;21.53;12.37;;;;;;;2.76;100.00;95933.75;5086292;28;20197;-83
2022/12/03 08:48:31;;;;;;;20.20;12.43;;;;;;;2.91;100.00;95948.63;5095321;28;20307;-83
2022/12/03 08:55:31;;;;;;;21.63;11.73;;;;;;;3.17;100.00;95949.84;4986414;28;20220;-83
2022/12/03 08:58:01;;;;;;;19.70;11.63;;;;;;;3.17;100.00;95952.53;5022950;28;20220;-83
2022/12/03 09:00:32;;;;;;;18.83;11.97;;;;;;;3.20;100.00;95938.81;5079267;28;20201;-83
2022/12/03 09:03:01;;;;;;;19.00;11.67;;;;;;;3.42;100.00;95961.75;5098382;28;20221;-84
2022/12/03 09:05:31;;;;;;;21.17;12.33;;;;;;;3.52;100.00;95956.06;5083548;28;20205;-83
2022/12/03 09:07:59;;;;;;;19.50;11.37;;;;;;;3.58;100.00;95953.41;5084449;28;20240;-83
2022/12/03 09:10:29;;;;;;;17.43;11.37;;;;;;;3.64;100.00;95954.50;5076568;28;20201;-83
2022/12/03 09:12:56;;;;;;;19.07;12.03;;;;;;;3.85;100.00;95961.59;5085793;28;20266;-83
2022/12/03 09:15:23;;;;;;;19.20;11.70;;;;;;;3.86;100.00;95965.91;5092244;28;20238;-83
2022/12/03 09:17:52;;;;;;;19.20;11.57;;;;;;;3.83;100.00;95959.09;5082073;28;20228;-82
2022/12/03 09:20:19;;;;;;;17.43;10.83;;;;;;;3.91;100.00;95961.63;5084158;28;20236;-83
2022/12/03 09:22:59;;;;;;;18.73;11.83;;;;;;;3.92;100.00;95951.75;5089811;28;20224;-83
2022/12/03 09:25:26;;;;;;;16.43;10.53;;;;;;;4.02;100.00;95957.56;5106378;27;20260;-83
2022/12/03 09:27:53;;;;;;;16.93;10.90;;;;;;;4.04;100.00;95956.34;5102851;27;20261;-83
2022/12/03 09:30:21;;;;;;;20.63;11.73;;;;;;;4.05;100.00;95949.97;5115085;27;20294;-83
2022/12/03 09:32:48;;;;;;;17.70;11.30;;;;;;;4.16;100.00;95952.09;5117842;27;20208;-83
2022/12/03 09:35:17;;;;;;;18.87;11.37;;;;;;;4.41;100.00;95944.34;5101370;28;20200;-83
2022/12/03 09:37:44;;;;;;;21.63;11.00;;;;;;;4.64;100.00;95953.84;5111648;27;20204;-82
2022/12/03 09:40:12;;;;;;;19.67;10.63;;;;;;;4.83;100.00;95953.06;5103632;27;20212;-83
2022/12/03 09:42:40;;;;;;;15.83;10.60;;;;;;;4.98;100.00;95953.69;5103025;27;20206;-83
2022/12/03 09:45:11;;;;;;;18.70;11.57;;;;;;;5.03;100.00;95932.47;5111399;27;20207;-83
2022/12/03 09:47:39;;;;;;;14.40;10.37;;;;;;;5.00;100.00;95940.94;5108272;27;20204;-82
2022/12/03 09:50:13;;;;;;;17.43;11.23;;;;;;;5.00;100.00;95929.41;5107208;27;20248;-82
2022/12/03 09:52:44;;;;;;;18.27;10.93;;;;;;;5.04;100.00;95931.44;5099660;27;20224;-83
2022/12/03 09:55:17;;;;;;;14.30;9.43;;;;;;;4.95;100.00;95916.63;5097574;27;20206;-83
2022/12/03 09:57:44;;;;;;;18.63;11.70;;;;;;;4.97;100.00;95917.25;5100603;27;20228;-83
2022/12/03 10:00:17;;;;;;;17.97;11.17;;;;;;;4.90;100.00;95893.19;5101285;28;20242;-83
2022/12/03 10:02:46;;;;;;;16.50;11.20;;;;;;;4.96;100.00;95923.63;5099868;27;20212;-83
2022/12/03 10:05:13;;;;;;;16.40;11.17;;;;;;;4.93;100.00;95905.34;5110413;27;20199;-83
2022/12/03 10:07:44;;;;;;;18.90;11.07;;;;;;;5.01;100.00;95904.31;5102397;27;20200;-83
2022/12/03 10:10:16;;;;;;;16.97;10.87;;;;;;;5.00;100.00;95895.44;5114178;27;20220;-83
2022/12/03 10:12:44;;;;;;;15.10;10.20;;;;;;;4.97;100.00;95887.81;5098461;28;20265;-83
2022/12/03 10:15:16;;;;;;;19.90;11.20;;;;;;;5.01;100.00;95886.41;5098925;27;20200;-83
2022/12/03 10:17:46;;;;;;;16.20;10.50;;;;;;;5.08;100.00;95881.84;5110949;27;20324;-83
2022/12/03 10:20:17;;;;;;;16.27;10.73;;;;;;;5.15;100.00;95888.03;5094229;28;20214;-83
2022/12/03 10:22:47;;;;;;;18.80;11.30;;;;;;;5.16;100.00;95870.94;5094848;27;20207;-82
2022/12/03 10:25:19;;;;;;;17.63;10.97;;;;;;;5.15;100.00;95868.47;5100358;28;20291;-81
2022/12/03 10:27:57;;;;;;;17.67;10.50;;;;;;;5.07;100.00;95860.66;5104714;28;20216;-82
2022/12/03 10:30:27;;;;;;;19.83;11.40;;;;;;;5.12;100.00;95864.34;5102312;28;20226;-82
2022/12/03 10:32:56;;;;;;;15.27;10.67;;;;;;;5.18;100.00;95857.34;5103323;27;20207;-82
2022/12/03 10:35:25;;;;;;;19.60;11.40;;;;;;;5.19;100.00;95846.41;5101395;28;20197;-82
2022/12/03 10:38:00;;;;;;;18.83;10.70;;;;;;;5.26;100.00;95865.16;5112759;27;20212;-82
2022/12/03 10:40:29;;;;;;;17.43;12.10;;;;;;;5.27;100.00;95861.47;5097589;27;20194;-82
2022/12/03 10:43:20;;;;;;;17.10;10.53;;;;;;;5.26;100.00;95854.47;5098714;28;20195;-83
2022/12/03 10:45:48;;;;;;;18.17;11.37;;;;;;;5.38;100.00;95843.91;5112827;27;20227;-82
2022/12/03 10:48:18;;;;;;;19.23;10.53;;;;;;;5.36;100.00;95837.97;5107725;27;20294;-82
2022/12/03 10:50:55;;;;;;;18.17;11.37;;;;;;;5.40;100.00;95836.50;5100745;27;20204;-82
2022/12/03 10:53:28;;;;;;;19.50;10.90;;;;;;;5.37;100.00;95820.84;5098136;28;20196;-82
2022/12/03 10:55:58;;;;;;;18.47;10.87;;;;;;;5.38;100.00;95834.03;5108162;27;20594;-82
2022/12/03 10:58:27;;;;;;;19.17;11.37;;;;;;;5.28;100.00;95834.47;5098482;28;20228;-82
2022/12/03 11:00:56;;;;;;;20.33;11.13;;;;;;;5.28;100.00;95837.13;5108397;27;20275;-82
2022/12/03 11:03:26;;;;;;;17.93;11.37;;;;;;;5.25;100.00;95842.94;5102785;28;20200;-82
2022/12/03 11:05:55;;;;;;;16.80;11.37;;;;;;;5.13;100.00;95825.84;5104289;28;20204;-82
2022/12/03 11:08:25;;;;;;;15.77;10.40;;;;;;;5.09;100.00;95826.50;5095085;28;20235;-82
2022/12/03 11:10:58;;;;;;;17.23;11.20;;;;;;;5.12;100.00;95818.03;5109790;27;20215;-82
2022/12/03 11:13:50;;;;;;;22.03;12.27;;;;;;;5.03;100.00;95819.28;5105123;27;20265;-82
2022/12/03 11:16:58;;;;;;;17.77;11.40;;;;;;;5.04;100.00;95820.91;5107678;27;20204;-81
2022/12/03 11:19:50;;;;;;;19.23;11.70;;;;;;;5.02;100.00;95823.00;5080058;28;20227;-81
2022/12/03 11:22:44;;;;;;;18.00;11.40;;;;;;;4.90;100.00;95820.97;5096035;28;20208;-82
2022/12/03 11:25:50;;;;;;;19.67;11.07;;;;;;;4.94;100.00;95819.50;5081577;27;20238;-82
2022/12/03 11:28:52;;;;;;;19.70;11.27;;;;;;;4.88;100.00;95817.66;5108459;28;20222;-81
2022/12/03 11:31:37;;;;;;;17.77;10.57;;;;;;;4.90;100.00;95828.16;5113000;28;20265;-82
2022/12/03 11:34:47;;;;;;;17.00;11.37;;;;;;;4.92;100.00;95823.44;5105911;28;20204;-81
2022/12/03 11:37:28;;;;;;;19.33;11.97;;;;;;;4.87;100.00;95820.53;5109331;28;20294;-81
2022/12/03 11:40:00;;;;;;;17.47;10.73;;;;;;;4.88;100.00;95828.34;5105181;28;20280;-81
2022/12/03 11:42:39;;;;;;;16.60;10.87;;;;;;;4.88;100.00;95814.16;5110077;27;20207;-81
2022/12/03 11:45:18;;;;;;;16.30;10.43;;;;;;;4.82;100.00;95817.66;5113162;28;20224;-81
2022/12/03 11:47:47;;;;;;;18.43;10.60;;;;;;;4.84;100.00;95818.28;5108301;28;20229;-81
2022/12/03 11:50:21;;;;;;;16.50;10.50;;;;;;;4.80;100.00;95817.06;5118073;27;20222;-81
2022/12/03 11:52:53;;;;;;;17.60;11.20;;;;;;;4.83;100.00;95817.47;5097262;28;20196;-81
2022/12/03 11:55:29;;;;;;;17.67;11.10;;;;;;;4.78;100.00;95803.06;5115707;28;20222;-82
2022/12/03 11:58:02;;;;;;;17.70;11.17;;;;;;;4.63;100.00;95792.59;5108279;28;20286;-81
2022/12/03 12:00:30;;;;;;;18.80;10.47;;;;;;;4.74;100.00;95823.22;5099770;28;20196;-81
2022/12/03 12:02:58;;;;;;;17.77;11.20;;;;;;;4.71;100.00;95810.25;5096279;28;20257;-82
2022/12/03 12:05:29;;;;;;;20.57;11.87;;;;;;;4.67;100.00;95807.19;5110532;28;20204;-81
2022/12/03 12:08:00;;;;;;;17.77;11.10;;;;;;;4.72;100.00;95809.25;5104798;27;20208;-81
2022/12/03 12:10:47;;;;;;;18.43;11.70;;;;;;;4.76;100.00;95808.63;5108113;28;20357;-81
2022/12/03 12:13:51;;;;;;;18.30;10.20;;;;;;;4.72;100.00;95806.56;5112118;28;20203;-81
2022/12/03 12:16:48;;;;;;;17.70;11.13;;;;;;;4.70;100.00;95813.97;5105710;28;20199;-81
2022/12/03 12:19:33;;;;;;;15.83;9.80;;;;;;;4.56;100.00;95803.28;5100519;28;20228;-82
2022/12/03 12:22:18;;;;;;;18.83;11.43;;;;;;;4.64;100.00;95793.41;5106582;28;20211;-82
2022/12/03 12:24:51;;;;;;;20.77;11.67;;;;;;;4.79;100.00;95796.69;5124514;28;20231;-81
2022/12/03 12:27:23;;;;;;;17.20;10.93;;;;;;;4.73;100.00;95800.19;5097656;28;20212;-82
2022/12/03 12:29:53;;;;;;;16.20;10.93;;;;;;;4.78;100.00;95792.34;5112154;27;20233;-81
2022/12/03 12:32:25;;;;;;;19.57;11.40;;;;;;;4.83;100.00;95790.72;5131108;27;20207;-83
2022/12/03 12:34:57;;;;;;;17.17;11.20;;;;;;;4.89;100.00;95783.72;5104505;27;20207;-82
2022/12/03 12:37:35;;;;;;;16.17;9.73;;;;;;;4.81;100.00;95783.94;5099238;27;20206;-81
2022/12/03 12:40:14;;;;;;;15.87;9.80;;;;;;;4.78;100.00;95787.00;5106802;27;20204;-82
2022/12/03 12:42:48;;;;;;;21.57;11.63;;;;;;;4.83;100.00;95790.72;5102588;28;20200;-82
2022/12/03 12:45:19;;;;;;;18.60;11.67;;;;;;;4.86;100.00;95794.81;5108287;27;20261;-82
2022/12/03 12:47:53;;;;;;;20.20;11.70;;;;;;;4.91;100.00;95778.97;5100706;27;20239;-82
2022/12/03 12:50:22;;;;;;;15.70;10.40;;;;;;;4.81;100.00;95765.19;5101582;27;20225;-83
2022/12/03 12:52:53;;;;;;;19.93;10.73;;;;;;;4.83;100.00;95789.91;5099560;27;20259;-82